Time;durP1;ratioP1;P1;durP2;ratioP2;P2;SDS_P1;SDS_P2;PMS_P1;PMS_P2;Temp;Humidity;BMP_temperature;BMP_pressure;BME280_temperature;BME280_humidity;BME280_pressure;Samples;Min_cycle;Max_cycle;Signal;HPM_P1;HPM_P2
2023/03/14 00:00:13;;;;;;;2.80;2.30;;;;;;;4.95;55.18;98649.38;5053469;28;20731;-60
2023/03/14 00:02:39;;;;;;;2.45;2.33;;;;;;;4.05;55.74;98545.59;5050932;28;20656;-60
2023/03/14 00:05:08;;;;;;;2.92;2.63;;;;;;;4.52;56.47;98629.00;5053356;28;20201;-60
2023/03/14 00:07:38;;;;;;;3.28;2.33;;;;;;;4.13;56.60;98550.38;5053364;28;20671;-60
2023/03/14 00:10:15;;;;;;;3.05;2.67;;;;;;;4.53;57.34;98625.56;5053381;28;20589;-60
2023/03/14 00:12:41;;;;;;;2.78;2.58;;;;;;;3.99;57.09;98550.97;5055226;28;20574;-60
2023/03/14 00:15:08;;;;;;;3.22;2.35;;;;;;;4.31;57.60;98629.88;5055638;28;20660;-60
2023/03/14 00:17:35;;;;;;;3.10;2.90;;;;;;;3.60;57.88;98539.75;5055858;28;20683;-60
2023/03/14 00:20:07;;;;;;;3.33;2.70;;;;;;;4.08;58.45;98618.91;5055609;28;20209;-60
2023/03/14 00:22:35;;;;;;;3.92;2.72;;;;;;;4.14;57.94;98578.50;5055627;28;20259;-60
2023/03/14 00:25:02;;;;;;;3.13;2.83;;;;;;;4.32;57.46;98574.38;5055443;28;20774;-60
2023/03/14 00:27:27;;;;;;;3.70;2.88;;;;;;;4.57;56.89;98604.03;5055452;28;20182;-60
2023/03/14 00:29:53;;;;;;;2.83;2.45;;;;;;;4.43;57.48;98600.38;5055365;28;20284;-60
2023/03/14 00:32:18;;;;;;;2.67;2.42;;;;;;;3.89;57.81;98513.84;5055034;28;20174;-60
2023/03/14 00:34:43;;;;;;;2.95;2.45;;;;;;;4.17;57.68;98559.63;5055305;28;20264;-60
2023/03/14 00:37:09;;;;;;;4.05;2.38;;;;;;;4.60;57.17;98605.66;5055280;28;20174;-60
2023/03/14 00:39:34;;;;;;;6.13;2.75;;;;;;;4.50;57.23;98586.41;5055193;28;20304;-60
2023/03/14 00:42:00;;;;;;;3.55;2.67;;;;;;;4.22;58.53;98594.41;5055167;28;20170;-60
2023/03/14 00:44:25;;;;;;;2.45;2.28;;;;;;;3.61;58.57;98505.59;5052514;28;20271;-60
2023/03/14 00:46:50;;;;;;;3.67;2.72;;;;;;;4.29;58.33;98592.41;5052657;28;20193;-60
2023/03/14 00:49:16;;;;;;;3.92;2.33;;;;;;;3.73;58.15;98484.63;5052630;28;20643;-60
2023/03/14 00:51:41;;;;;;;2.50;2.40;;;;;;;4.18;58.49;98562.13;5052584;28;20269;-60
2023/03/14 00:54:07;;;;;;;2.60;2.40;;;;;;;3.99;58.43;98525.38;5052562;28;20185;-60
2023/03/14 00:56:32;;;;;;;2.60;2.40;;;;;;;3.95;59.07;98546.88;5052133;28;20217;-60
2023/03/14 00:58:58;;;;;;;2.47;2.38;;;;;;;3.57;59.94;98544.16;5052458;28;20268;-60
2023/03/14 01:01:24;;;;;;;2.78;2.30;;;;;;;3.29;61.59;98540.97;5052659;28;20177;-60
2023/03/14 01:03:55;;;;;;;3.25;2.30;;;;;;;3.25;61.79;98508.72;5052260;28;20197;-60
2023/03/14 01:06:26;;;;;;;4.13;2.30;;;;;;;3.29;62.49;98531.59;5052147;28;20193;-60
2023/03/14 01:08:52;;;;;;;2.53;2.33;;;;;;;3.43;62.59;98549.78;5052148;28;20277;-60
2023/03/14 01:11:23;;;;;;;3.78;2.33;;;;;;;2.77;62.86;98444.13;5052104;28;20660;-60
2023/03/14 01:13:49;;;;;;;2.45;2.25;;;;;;;3.13;62.02;98476.81;5052226;28;20181;-60
2023/03/14 01:16:16;;;;;;;2.33;2.22;;;;;;;3.69;61.58;98556.47;5069119;28;20189;-60
2023/03/14 01:18:43;;;;;;;2.67;2.42;;;;;;;3.60;61.12;98538.91;5072081;28;20173;-60
2023/03/14 01:21:21;;;;;;;2.75;2.30;;;;;;;3.24;60.91;98445.72;5071992;28;20193;-60
2023/03/14 01:23:48;;;;;;;2.63;2.42;;;;;;;3.33;61.32;98507.53;5071893;28;20184;-60
2023/03/14 01:26:18;;;;;;;3.45;2.35;;;;;;;2.56;63.54;98444.94;5071961;28;20196;-60
2023/03/14 01:28:44;;;;;;;3.40;2.45;;;;;;;2.39;64.52;98450.63;5071989;28;20169;-60
2023/03/14 01:31:10;;;;;;;2.13;2.03;;;;;;;2.32;64.88;98431.31;5071861;28;20208;-60
2023/03/14 01:33:36;;;;;;;3.05;2.58;;;;;;;2.52;64.61;98428.84;5071784;28;20185;-60
2023/03/14 01:36:03;;;;;;;2.60;2.40;;;;;;;2.71;64.71;98452.00;5071775;28;20170;-60
2023/03/14 01:38:29;;;;;;;2.35;2.25;;;;;;;2.85;64.15;98460.84;5054101;28;20293;-60
2023/03/14 01:40:55;;;;;;;2.90;2.70;;;;;;;2.68;64.85;98467.47;5054034;28;20186;-60
2023/03/14 01:43:21;;;;;;;4.28;2.20;;;;;;;2.54;65.43;98456.91;5054039;28;20266;-60
2023/03/14 01:46:21;;;;;;;2.15;1.95;;;;;;;2.89;65.66;98517.75;5053855;28;20690;-60
2023/03/14 01:48:49;;;;;;;3.55;3.00;;;;;;;3.08;65.10;98517.03;5071464;28;20293;-60
2023/03/14 01:51:37;;;;;;;2.50;2.30;;;;;;;3.17;64.58;98515.84;5071288;28;20555;-60
2023/03/14 01:54:09;;;;;;;2.60;2.33;;;;;;;3.12;63.98;98464.06;5063706;28;20617;-60
2023/03/14 01:56:36;;;;;;;2.22;2.03;;;;;;;3.17;62.87;98429.78;5071265;28;20189;-60
2023/03/14 01:59:06;;;;;;;3.53;2.60;;;;;;;3.80;62.23;98513.38;5091338;28;20189;-60
2023/03/14 02:01:31;;;;;;;2.15;2.05;;;;;;;3.63;62.15;98490.19;5091403;28;20181;-60
2023/03/14 02:04:01;;;;;;;2.88;2.38;;;;;;;3.67;62.27;98499.41;5091385;28;20670;-60
2023/03/14 02:06:34;;;;;;;6.00;2.13;;;;;;;3.14;63.26;98459.72;5091329;28;20272;-60
2023/03/14 02:09:00;;;;;;;2.55;2.35;;;;;;;3.44;63.73;98520.75;5090650;28;20697;-60
2023/03/14 02:11:29;;;;;;;3.13;2.50;;;;;;;3.45;63.90;98513.94;5091243;28;20189;-60
2023/03/14 02:13:57;;;;;;;2.72;2.53;;;;;;;3.29;63.46;98485.56;5091204;28;20184;-60
2023/03/14 02:16:22;;;;;;;3.15;2.85;;;;;;;3.14;64.21;98469.94;5091162;28;20200;-60
2023/03/14 02:18:48;;;;;;;3.15;2.40;;;;;;;2.54;64.62;98416.88;5089034;28;20196;-60
2023/03/14 02:21:35;;;;;;;3.47;2.50;;;;;;;3.04;65.04;98514.66;5070838;28;20203;-61
2023/03/14 02:24:34;;;;;;;2.67;2.47;;;;;;;3.25;64.15;98501.91;5070670;28;20212;-60
2023/03/14 02:27:19;;;;;;;2.70;2.50;;;;;;;3.14;65.34;98506.59;5050777;28;20314;-60
2023/03/14 02:29:57;;;;;;;2.55;2.35;;;;;;;2.94;65.05;98492.88;5043026;28;20241;-60
2023/03/14 02:32:24;;;;;;;3.72;2.92;;;;;;;3.23;64.89;98493.47;5031104;28;20595;-60
2023/03/14 02:34:54;;;;;;;3.92;2.45;;;;;;;3.10;64.98;98481.19;5030747;28;20189;-60
2023/03/14 02:37:23;;;;;;;2.63;2.40;;;;;;;2.96;66.13;98478.31;5030638;28;20653;-60
2023/03/14 02:39:51;;;;;;;2.67;2.47;;;;;;;2.94;66.09;98488.63;5030650;28;20178;-61
2023/03/14 02:42:16;;;;;;;2.63;2.42;;;;;;;3.15;65.49;98492.09;5030572;28;20177;-61
2023/03/14 02:45:18;;;;;;;3.05;2.60;;;;;;;3.14;64.84;98447.78;5030481;28;20657;-60
2023/03/14 02:47:49;;;;;;;2.92;2.70;;;;;;;2.76;64.42;98392.22;5030311;28;20182;-60
2023/03/14 02:50:18;;;;;;;3.25;2.95;;;;;;;3.22;64.72;98486.66;5030525;28;20201;-60
2023/03/14 02:52:43;;;;;;;3.08;2.78;;;;;;;2.65;65.42;98413.94;5030378;28;20185;-60
2023/03/14 02:55:09;;;;;;;2.85;2.60;;;;;;;2.52;65.41;98403.31;5030178;28;20194;-60
2023/03/14 02:57:35;;;;;;;2.72;2.53;;;;;;;3.18;65.31;98481.72;5030330;28;20201;-60
2023/03/14 03:00:03;;;;;;;3.60;2.70;;;;;;;3.43;64.51;98518.25;5030247;28;20265;-60
2023/03/14 03:02:29;;;;;;;3.05;2.75;;;;;;;2.58;65.62;98413.31;5030248;28;20180;-60
2023/03/14 03:04:54;;;;;;;2.88;2.67;;;;;;;2.83;66.71;98477.94;5051285;28;20601;-60
2023/03/14 03:07:20;;;;;;;3.85;2.92;;;;;;;2.84;66.24;98451.50;5069922;28;20622;-60
2023/03/14 03:09:46;;;;;;;4.30;3.30;;;;;;;2.59;67.27;98437.97;5070012;28;20196;-60
2023/03/14 03:12:11;;;;;;;2.92;2.72;;;;;;;2.83;67.58;98521.38;5069983;28;20197;-60
2023/03/14 03:14:37;;;;;;;2.78;2.55;;;;;;;2.47;67.06;98432.47;5069935;28;20250;-60
2023/03/14 03:17:04;;;;;;;2.97;2.75;;;;;;;2.43;66.77;98420.69;5069901;28;20750;-60
2023/03/14 03:19:31;;;;;;;4.35;2.53;;;;;;;2.57;66.42;98456.81;5069883;28;20254;-60
2023/03/14 03:21:57;;;;;;;3.22;2.83;;;;;;;2.66;67.73;98513.50;5069936;28;20775;-60
2023/03/14 03:24:22;;;;;;;3.55;3.25;;;;;;;2.45;67.83;98468.28;5069774;28;20223;-60
2023/03/14 03:26:48;;;;;;;3.28;3.08;;;;;;;2.72;68.17;98518.38;5069849;28;20666;-60
2023/03/14 03:29:13;;;;;;;3.40;3.10;;;;;;;2.51;68.26;98482.56;5069807;28;20200;-60
2023/03/14 03:31:39;;;;;;;2.80;2.60;;;;;;;2.15;68.13;98432.75;5069743;28;20181;-60
2023/03/14 03:34:04;;;;;;;5.28;3.17;;;;;;;2.72;68.42;98523.50;5069629;28;20197;-59
2023/03/14 03:36:31;;;;;;;4.43;2.72;;;;;;;2.15;68.35;98417.47;5069744;28;20189;-59
2023/03/14 03:38:56;;;;;;;3.58;2.72;;;;;;;2.69;67.97;98504.88;5056079;28;20193;-59
2023/03/14 03:41:21;;;;;;;3.03;2.70;;;;;;;2.28;67.50;98416.97;5052278;28;20260;-59
2023/03/14 03:43:47;;;;;;;3.28;2.63;;;;;;;2.50;67.84;98456.19;5051917;28;20197;-59
2023/03/14 03:46:12;;;;;;;3.00;2.80;;;;;;;2.44;67.98;98466.59;5051692;28;20557;-60
2023/03/14 03:48:38;;;;;;;2.97;2.75;;;;;;;1.98;68.53;98409.59;5051934;28;20235;-60
2023/03/14 03:51:03;;;;;;;3.10;2.90;;;;;;;1.93;68.77;98407.16;5051978;28;20625;-60
2023/03/14 03:53:29;;;;;;;3.30;3.00;;;;;;;2.54;68.32;98482.44;5051891;28;20231;-60
2023/03/14 03:55:57;;;;;;;3.15;2.75;;;;;;;2.90;67.61;98511.75;5051414;28;20225;-59
2023/03/14 03:58:22;;;;;;;3.42;2.80;;;;;;;3.08;67.06;98518.75;5052123;28;20261;-60
2023/03/14 04:00:48;;;;;;;3.03;2.75;;;;;;;3.05;66.74;98521.44;5051575;28;20256;-60
2023/03/14 04:03:13;;;;;;;4.63;2.88;;;;;;;3.01;66.94;98524.97;5051808;28;20205;-60
2023/03/14 04:05:39;;;;;;;3.58;3.28;;;;;;;2.23;68.41;98457.13;5051772;28;20679;-60
2023/03/14 04:08:05;;;;;;;4.47;3.35;;;;;;;2.55;68.44;98515.59;5051923;28;20592;-60
2023/03/14 04:10:34;;;;;;;2.97;2.78;;;;;;;2.65;68.13;98506.72;5051860;28;20181;-60
2023/03/14 04:12:59;;;;;;;3.97;3.50;;;;;;;2.02;68.66;98411.13;5051595;28;20619;-60
2023/03/14 04:15:25;;;;;;;3.75;3.30;;;;;;;2.29;69.09;98459.47;5051820;28;20224;-60
2023/03/14 04:17:50;;;;;;;3.33;3.03;;;;;;;2.44;69.34;98491.28;5051778;28;20197;-59
2023/03/14 04:20:16;;;;;;;3.53;3.22;;;;;;;2.47;69.00;98486.09;5051777;28;20178;-60
2023/03/14 04:22:41;;;;;;;2.45;2.30;;;;;;;2.27;69.29;98432.38;5051754;28;20542;-60
2023/03/14 04:25:07;;;;;;;3.58;2.90;;;;;;;2.20;68.96;98429.19;5051634;28;20201;-60
2023/03/14 04:27:33;;;;;;;3.78;2.90;;;;;;;2.42;69.55;98473.50;5051712;28;20715;-60
2023/03/14 04:29:58;;;;;;;2.95;2.75;;;;;;;2.40;69.35;98442.06;5051692;28;20268;-60
2023/03/14 04:32:25;;;;;;;3.05;2.75;;;;;;;2.15;70.02;98428.50;5053556;28;20173;-60
2023/03/14 04:34:51;;;;;;;3.17;2.95;;;;;;;1.86;70.13;98349.59;5055420;28;20212;-60
2023/03/14 04:37:16;;;;;;;2.45;2.25;;;;;;;2.20;69.00;98392.59;5055619;28;20170;-59
2023/03/14 04:39:42;;;;;;;2.92;2.72;;;;;;;2.28;69.33;98406.75;5055348;28;20553;-60
2023/03/14 04:42:07;;;;;;;2.63;2.30;;;;;;;2.18;69.18;98362.06;5054954;28;20223;-60
2023/03/14 04:44:32;;;;;;;2.42;2.22;;;;;;;2.19;69.52;98355.22;5055137;28;20233;-60
2023/03/14 04:46:58;;;;;;;2.75;2.55;;;;;;;2.80;69.27;98428.69;5055208;28;20170;-60
2023/03/14 04:49:23;;;;;;;2.30;2.13;;;;;;;2.59;69.16;98403.94;5055082;28;20637;-60
2023/03/14 04:51:50;;;;;;;2.63;2.42;;;;;;;2.87;69.08;98450.56;5055066;28;20239;-60
2023/03/14 04:54:17;;;;;;;2.75;2.58;;;;;;;2.47;68.00;98364.38;5055019;28;20191;-60
2023/03/14 04:56:42;;;;;;;4.72;3.53;;;;;;;3.21;66.52;98456.88;5052376;28;20367;-60
2023/03/14 04:59:08;;;;;;;3.38;3.05;;;;;;;3.41;66.26;98456.97;5052837;28;20272;-60
2023/03/14 05:01:33;;;;;;;5.43;4.93;;;;;;;3.63;65.70;98472.28;5052556;28;20251;-60
2023/03/14 05:03:59;;;;;;;5.05;3.90;;;;;;;3.60;65.22;98451.91;5052402;28;20174;-60
2023/03/14 05:06:24;;;;;;;5.25;4.15;;;;;;;3.55;64.99;98441.06;5052371;28;20692;-60
2023/03/14 05:08:49;;;;;;;7.53;5.90;;;;;;;3.44;64.76;98399.75;5052397;28;20177;-60
2023/03/14 05:11:15;;;;;;;8.25;5.43;;;;;;;3.85;64.00;98435.50;5052348;28;20193;-60
2023/03/14 05:13:40;;;;;;;10.05;6.88;;;;;;;4.37;63.20;98493.88;5052212;28;20255;-60
2023/03/14 05:16:08;;;;;;;9.75;7.18;;;;;;;4.34;63.82;98483.78;5052098;28;20566;-60
2023/03/14 05:18:33;;;;;;;6.75;5.25;;;;;;;4.49;62.75;98490.78;5052031;28;20185;-60
2023/03/14 05:20:59;;;;;;;4.80;4.00;;;;;;;4.02;62.83;98417.72;5052117;28;20190;-60
2023/03/14 05:23:25;;;;;;;6.13;4.47;;;;;;;4.43;62.22;98491.06;5051997;28;20651;-59
2023/03/14 05:25:50;;;;;;;3.97;3.58;;;;;;;3.87;62.63;98392.81;5051897;28;20690;-59
2023/03/14 05:28:15;;;;;;;6.20;3.40;;;;;;;4.18;62.34;98426.44;5053472;28;20178;-59
2023/03/14 05:30:41;;;;;;;4.70;3.95;;;;;;;4.49;61.86;98454.13;5054037;28;20228;-59
2023/03/14 05:33:06;;;;;;;7.75;4.75;;;;;;;4.57;61.33;98437.50;5054225;28;20193;-59
2023/03/14 05:35:32;;;;;;;11.77;7.22;;;;;;;4.70;61.25;98442.91;5054440;28;20185;-60
2023/03/14 05:37:57;;;;;;;11.02;7.60;;;;;;;5.15;61.23;98487.81;5051605;28;20252;-59
2023/03/14 05:40:23;;;;;;;13.30;8.63;;;;;;;5.04;60.82;98453.28;5051683;28;20325;-59
2023/03/14 05:42:48;;;;;;;13.77;7.57;;;;;;;5.41;60.47;98507.97;5050989;28;20186;-59
2023/03/14 05:45:13;;;;;;;12.18;7.20;;;;;;;5.53;60.18;98492.00;5051086;28;20674;-59
2023/03/14 05:47:39;;;;;;;10.35;6.95;;;;;;;5.47;59.80;98471.75;5051558;28;20189;-59
2023/03/14 05:50:04;;;;;;;16.88;9.00;;;;;;;5.70;59.79;98494.59;5051522;28;20186;-59
2023/03/14 05:52:30;;;;;;;12.63;9.38;;;;;;;5.58;60.17;98477.22;5051427;28;20224;-59
2023/03/14 05:54:55;;;;;;;16.40;9.15;;;;;;;5.35;59.79;98420.19;5051219;28;20670;-59
2023/03/14 05:57:21;;;;;;;12.48;9.13;;;;;;;5.75;60.09;98495.22;5051436;28;20240;-59
2023/03/14 05:59:46;;;;;;;12.07;8.30;;;;;;;5.40;59.92;98425.94;5031284;28;20234;-59
2023/03/14 06:02:11;;;;;;;13.35;8.95;;;;;;;5.60;60.16;98469.44;5031362;28;20179;-59
2023/03/14 06:04:37;;;;;;;11.85;7.97;;;;;;;5.65;60.03;98483.72;5031200;28;20292;-59
2023/03/14 06:07:03;;;;;;;13.98;7.88;;;;;;;5.72;59.77;98490.19;5031286;28;20237;-60
2023/03/14 06:09:29;;;;;;;13.25;8.63;;;;;;;5.64;59.33;98476.91;5045609;28;20236;-60
2023/03/14 06:11:55;;;;;;;13.32;8.90;;;;;;;5.51;59.22;98455.31;5051076;28;20277;-59
2023/03/14 06:14:20;;;;;;;11.30;7.90;;;;;;;5.54;59.80;98503.91;5051051;28;20182;-60
2023/03/14 06:16:47;;;;;;;23.95;8.88;;;;;;;5.23;61.07;98503.69;5050963;28;20236;-61
2023/03/14 06:19:13;;;;;;;12.63;8.60;;;;;;;5.29;61.15;98485.44;5050949;28;20733;-60
2023/03/14 06:21:38;;;;;;;11.00;7.50;;;;;;;5.40;60.60;98480.66;5050876;28;20280;-59
2023/03/14 06:24:04;;;;;;;11.13;8.20;;;;;;;5.31;60.34;98457.97;5051067;28;20170;-59
2023/03/14 06:26:29;;;;;;;15.52;8.27;;;;;;;5.28;60.00;98440.19;5050840;28;20675;-60
2023/03/14 06:28:55;;;;;;;11.18;8.50;;;;;;;5.70;59.81;98497.16;5050799;28;20178;-61
2023/03/14 06:31:20;;;;;;;12.65;9.20;;;;;;;5.36;59.58;98414.97;5052227;28;20196;-61
2023/03/14 06:33:45;;;;;;;14.73;9.23;;;;;;;5.71;59.26;98456.94;5053062;28;20174;-60
2023/03/14 06:36:11;;;;;;;13.95;9.02;;;;;;;5.58;59.90;98445.56;5053020;28;20644;-60
2023/03/14 06:38:36;;;;;;;11.88;9.63;;;;;;;5.70;59.33;98445.81;5052992;28;20170;-60
2023/03/14 06:41:06;;;;;;;14.70;9.05;;;;;;;5.49;59.21;98423.75;5052956;28;20220;-60
2023/03/14 06:43:32;;;;;;;12.10;9.43;;;;;;;5.40;59.64;98452.44;5052921;28;20182;-60
2023/03/14 06:45:57;;;;;;;13.10;8.95;;;;;;;5.63;59.71;98485.53;5052830;28;20194;-60
2023/03/14 06:48:22;;;;;;;12.25;8.45;;;;;;;5.53;60.11;98455.25;5052870;28;20169;-60
2023/03/14 06:50:52;;;;;;;13.02;8.07;;;;;;;5.69;59.18;98443.31;5052757;28;20202;-60
2023/03/14 06:53:17;;;;;;;13.35;8.82;;;;;;;5.66;58.59;98408.38;5052717;28;20182;-60
2023/03/14 06:55:43;;;;;;;12.10;8.75;;;;;;;6.12;58.29;98463.47;5051757;28;20722;-60
2023/03/14 06:58:08;;;;;;;15.20;9.15;;;;;;;6.13;58.07;98460.78;5052453;28;20209;-61
2023/03/14 07:00:35;;;;;;;12.55;9.18;;;;;;;5.97;58.18;98408.56;5052160;28;20624;-60
2023/03/14 07:03:01;;;;;;;14.23;9.95;;;;;;;6.30;57.87;98439.41;5052021;28;20585;-60
2023/03/14 07:05:26;;;;;;;18.65;10.50;;;;;;;6.73;57.48;98490.25;5052206;28;20288;-60
2023/03/14 07:07:51;;;;;;;18.30;11.02;;;;;;;6.60;58.06;98466.94;5052127;28;20177;-60
2023/03/14 07:10:17;;;;;;;19.20;9.63;;;;;;;6.37;57.72;98413.34;5029532;28;20583;-60
2023/03/14 07:12:45;;;;;;;12.68;8.40;;;;;;;6.89;57.50;98475.69;5030005;28;20197;-60
2023/03/14 07:15:11;;;;;;;11.18;8.18;;;;;;;6.81;57.20;98470.16;5029945;28;20695;-60
2023/03/14 07:17:36;;;;;;;14.40;7.90;;;;;;;6.54;56.90;98400.41;5030039;28;20175;-60
2023/03/14 07:20:04;;;;;;;11.57;7.38;;;;;;;7.07;56.40;98478.13;5030011;28;20182;-61
2023/03/14 07:22:30;;;;;;;11.93;7.70;;;;;;;6.71;56.20;98402.13;5029925;28;20198;-60
2023/03/14 07:24:56;;;;;;;15.88;7.80;;;;;;;7.22;56.43;98472.16;5029854;28;20206;-60
2023/03/14 07:27:21;;;;;;;10.35;7.97;;;;;;;6.98;57.12;98454.63;5029875;28;20185;-60
2023/03/14 07:29:47;;;;;;;8.65;7.13;;;;;;;7.07;56.41;98431.84;5029817;28;20626;-60
2023/03/14 07:32:14;;;;;;;15.43;7.68;;;;;;;7.06;55.99;98419.84;5029730;28;20214;-60
2023/03/14 07:34:43;;;;;;;14.57;7.60;;;;;;;6.88;55.63;98384.84;5029737;28;20195;-60
2023/03/14 07:37:09;;;;;;;16.75;8.68;;;;;;;7.30;55.40;98418.53;5029711;28;20202;-60
2023/03/14 07:39:34;;;;;;;12.88;8.15;;;;;;;7.44;55.39;98435.78;5029561;28;20188;-60
2023/03/14 07:42:00;;;;;;;13.68;7.30;;;;;;;7.67;54.98;98459.34;5029499;28;20190;-60
2023/03/14 07:44:26;;;;;;;13.38;7.47;;;;;;;7.69;54.40;98454.91;5029622;28;20213;-60
2023/03/14 07:46:52;;;;;;;13.05;8.40;;;;;;;7.01;54.93;98385.88;5032620;28;20182;-60
2023/03/14 07:49:17;;;;;;;9.15;7.47;;;;;;;7.28;55.58;98453.00;5049774;28;20663;-60
2023/03/14 07:51:43;;;;;;;13.75;8.20;;;;;;;6.95;56.11;98393.06;5049535;28;20253;-60
2023/03/14 07:54:10;;;;;;;11.27;7.82;;;;;;;6.97;55.34;98361.22;5049117;28;20572;-60
2023/03/14 07:56:35;;;;;;;19.92;7.55;;;;;;;7.61;54.54;98433.94;5049407;28;20388;-60
2023/03/14 07:59:01;;;;;;;12.63;7.68;;;;;;;7.84;54.06;98456.63;5049504;28;20178;-60
2023/03/14 08:01:26;;;;;;;10.13;7.07;;;;;;;7.36;53.40;98358.16;5049359;28;20186;-60
2023/03/14 08:03:52;;;;;;;11.45;7.22;;;;;;;7.52;53.39;98353.81;5049665;28;20182;-61
2023/03/14 08:06:17;;;;;;;11.68;7.00;;;;;;;8.29;52.36;98438.56;5048491;28;20220;-60
2023/03/14 08:08:43;;;;;;;11.43;6.93;;;;;;;8.44;51.97;98437.63;5051924;28;20240;-60
2023/03/14 08:11:08;;;;;;;10.05;7.20;;;;;;;8.38;51.73;98401.09;5053357;28;20174;-61
2023/03/14 08:13:34;;;;;;;11.85;7.28;;;;;;;8.10;51.75;98388.97;5052382;28;20206;-61
2023/03/14 08:16:00;;;;;;;22.10;12.80;;;;;;;7.96;52.70;98407.00;5069710;28;20194;-60
2023/03/14 08:18:26;;;;;;;11.65;7.18;;;;;;;7.97;51.49;98357.13;5054756;28;20189;-61
2023/03/14 08:20:51;;;;;;;9.40;6.30;;;;;;;8.02;51.12;98344.81;5055865;28;20182;-60
2023/03/14 08:23:16;;;;;;;9.93;5.47;;;;;;;8.57;49.39;98415.34;5055557;28;20178;-60
2023/03/14 08:25:43;;;;;;;10.43;5.60;;;;;;;8.49;49.85;98394.38;5055459;28;20189;-61
2023/03/14 08:28:08;;;;;;;12.65;7.15;;;;;;;8.65;49.81;98389.94;5055369;28;20186;-60
2023/03/14 08:30:33;;;;;;;13.07;7.00;;;;;;;8.62;49.93;98341.09;5055434;28;20186;-61
2023/03/14 08:32:59;;;;;;;11.95;6.70;;;;;;;8.90;49.70;98353.13;5055402;28;20176;-60
2023/03/14 08:35:25;;;;;;;6.50;5.05;;;;;;;9.15;48.19;98359.22;5055337;28;20178;-60
2023/03/14 08:37:51;;;;;;;5.95;4.63;;;;;;;9.39;47.04;98393.78;5055287;28;20188;-61
2023/03/14 08:40:18;;;;;;;11.98;4.70;;;;;;;9.28;47.46;98364.44;5055243;28;20178;-60
2023/03/14 08:42:44;;;;;;;9.43;5.00;;;;;;;9.43;46.39;98369.44;5055158;28;20185;-60
2023/03/14 08:45:12;;;;;;;11.52;4.45;;;;;;;9.86;45.50;98422.56;5054771;28;20205;-60
2023/03/14 08:47:37;;;;;;;6.32;4.15;;;;;;;9.93;45.13;98406.53;5055059;28;20178;-60
2023/03/14 08:50:04;;;;;;;6.03;4.50;;;;;;;10.00;44.31;98394.06;5055053;28;20263;-60
2023/03/14 08:52:31;;;;;;;6.70;4.00;;;;;;;9.71;44.26;98330.56;5054903;28;20182;-60
2023/03/14 08:54:56;;;;;;;6.05;4.00;;;;;;;10.23;43.81;98403.72;5054918;28;20190;-60
2023/03/14 08:57:27;;;;;;;4.93;4.20;;;;;;;9.76;43.66;98325.91;5054927;28;20176;-60
2023/03/14 08:59:53;;;;;;;8.02;4.10;;;;;;;9.93;43.94;98339.34;5054953;28;20181;-60
2023/03/14 09:02:18;;;;;;;5.93;3.78;;;;;;;10.29;43.75;98380.03;5054803;28;20173;-60
2023/03/14 09:04:43;;;;;;;7.68;4.63;;;;;;;10.10;43.69;98346.84;5054700;28;20670;-60
2023/03/14 09:07:09;;;;;;;5.05;4.22;;;;;;;10.25;43.71;98376.00;5054746;28;20180;-60
2023/03/14 09:09:34;;;;;;;6.75;4.43;;;;;;;10.10;44.80;98371.88;5054673;28;20165;-60
2023/03/14 09:12:00;;;;;;;9.45;5.18;;;;;;;10.06;44.64;98326.47;5054646;28;20228;-60
2023/03/14 09:14:25;;;;;;;5.35;4.20;;;;;;;10.33;44.34;98346.09;5054840;28;20185;-60
2023/03/14 09:16:50;;;;;;;6.15;4.28;;;;;;;10.63;43.94;98358.69;5054530;28;20201;-60
2023/03/14 09:19:18;;;;;;;11.57;7.47;;;;;;;10.35;43.71;98310.63;5054355;28;20197;-61
2023/03/14 09:21:43;;;;;;;11.02;5.63;;;;;;;10.49;43.37;98354.47;5054176;28;20707;-60
2023/03/14 09:24:09;;;;;;;7.40;4.65;;;;;;;9.91;44.26;98275.78;5054368;28;20281;-60
2023/03/14 09:26:34;;;;;;;10.18;5.43;;;;;;;9.98;44.52;98277.03;5054672;28;20190;-61
2023/03/14 09:29:00;;;;;;;10.63;5.20;;;;;;;10.21;44.43;98304.75;5054387;28;20255;-60
2023/03/14 09:31:25;;;;;;;8.52;5.35;;;;;;;10.61;44.47;98343.25;5071697;28;20280;-61
2023/03/14 09:33:50;;;;;;;12.85;6.90;;;;;;;10.62;43.66;98334.56;5071764;28;20196;-60
2023/03/14 09:36:16;;;;;;;8.68;5.80;;;;;;;10.32;44.52;98331.50;5071809;28;20357;-60
2023/03/14 09:38:41;;;;;;;7.38;6.10;;;;;;;9.95;44.75;98277.22;5071668;28;20185;-60
2023/03/14 09:41:17;;;;;;;6.78;4.57;;;;;;;10.09;45.08;98288.31;5071700;28;20289;-60
2023/03/14 09:43:46;;;;;;;8.90;4.68;;;;;;;10.02;44.86;98268.13;5071765;28;20243;-60
2023/03/14 09:46:12;;;;;;;7.82;5.90;;;;;;;10.53;44.89;98322.28;5071593;28;20694;-60
2023/03/14 09:48:37;;;;;;;5.55;4.85;;;;;;;10.69;45.03;98320.25;5071529;28;20267;-60
2023/03/14 09:51:12;;;;;;;5.22;4.72;;;;;;;10.54;44.18;98251.50;5071587;28;20207;-60
2023/03/14 09:53:45;;;;;;;7.30;4.90;;;;;;;10.49;44.20;98229.47;5071495;28;20184;-60
2023/03/14 09:56:18;;;;;;;5.75;4.55;;;;;;;10.56;43.86;98225.53;5071318;28;20263;-60
2023/03/14 09:58:49;;;;;;;9.63;5.60;;;;;;;10.89;43.49;98247.22;5071408;28;20182;-60
2023/03/14 10:01:20;;;;;;;5.93;5.32;;;;;;;11.45;43.36;98315.59;5071382;28;20162;-60
2023/03/14 10:03:47;;;;;;;5.90;4.63;;;;;;;11.12;43.59;98235.19;5091532;28;20192;-60
2023/03/14 10:06:14;;;;;;;6.63;5.03;;;;;;;11.59;43.37;98286.91;5091458;28;20212;-60
2023/03/14 10:08:43;;;;;;;4.90;4.20;;;;;;;11.71;42.67;98306.72;5082878;28;20231;-60
2023/03/14 10:11:18;;;;;;;5.88;4.70;;;;;;;11.35;43.04;98260.22;5071254;28;20670;-60
2023/03/14 10:14:05;;;;;;;5.80;4.05;;;;;;;11.65;43.00;98291.63;5071180;28;20189;-60
2023/03/14 10:16:45;;;;;;;5.50;4.70;;;;;;;11.38;42.64;98213.38;5071192;28;20647;-60
2023/03/14 10:19:12;;;;;;;6.88;4.60;;;;;;;11.72;42.00;98220.28;5070938;28;20565;-60
2023/03/14 10:21:51;;;;;;;7.22;4.50;;;;;;;12.07;42.07;98278.84;5070963;28;20185;-60
2023/03/14 10:24:29;;;;;;;8.50;4.63;;;;;;;12.08;42.46;98259.75;5070946;28;20260;-60
2023/03/14 10:27:02;;;;;;;4.70;4.30;;;;;;;11.96;41.73;98246.94;5070976;28;20169;-60
2023/03/14 10:29:30;;;;;;;6.55;4.88;;;;;;;11.75;41.99;98178.56;5070356;28;20640;-60
2023/03/14 10:32:07;;;;;;;6.35;4.38;;;;;;;12.45;41.49;98258.56;5070784;28;20234;-60
2023/03/14 10:34:34;;;;;;;6.88;4.53;;;;;;;12.67;41.19;98257.69;5063349;28;20631;-60
2023/03/14 10:37:08;;;;;;;9.13;6.80;;;;;;;12.41;41.05;98217.38;5053125;28;20174;-60
2023/03/14 10:39:44;;;;;;;5.88;4.70;;;;;;;12.50;41.32;98219.28;5053171;28;20169;-60
2023/03/14 10:42:33;;;;;;;5.20;4.75;;;;;;;12.40;41.20;98192.41;5053089;28;20165;-60
2023/03/14 10:45:07;;;;;;;6.05;4.50;;;;;;;12.78;40.93;98218.72;5052921;28;20197;-60
2023/03/14 10:47:33;;;;;;;6.20;4.65;;;;;;;12.78;40.71;98180.59;5052989;28;20173;-60
2023/03/14 10:50:23;;;;;;;4.82;4.40;;;;;;;13.26;40.09;98207.81;5052879;28;20174;-60
2023/03/14 10:52:48;;;;;;;4.90;4.20;;;;;;;13.37;39.26;98180.94;5052895;28;20166;-60
2023/03/14 10:55:14;;;;;;;4.75;4.25;;;;;;;13.60;38.75;98192.81;5052634;28;20200;-60
2023/03/14 10:57:41;;;;;;;7.05;4.70;;;;;;;13.71;39.13;98190.16;5052783;28;20228;-60
2023/03/14 11:00:16;;;;;;;7.00;4.80;;;;;;;13.74;39.29;98169.06;5052675;28;20202;-60
2023/03/14 11:03:20;;;;;;;4.82;4.35;;;;;;;14.18;38.79;98197.31;5052696;28;20272;-60
2023/03/14 11:06:01;;;;;;;13.68;4.63;;;;;;;14.37;37.79;98185.22;5050144;28;20299;-60
2023/03/14 11:08:37;;;;;;;5.38;4.75;;;;;;;14.03;37.33;98111.00;5050234;28;20251;-60
2023/03/14 11:11:17;;;;;;;4.90;4.30;;;;;;;14.49;37.52;98167.69;5050257;28;20180;-60
2023/03/14 11:14:08;;;;;;;7.30;4.95;;;;;;;14.72;37.36;98169.91;5010420;28;20222;-60
2023/03/14 11:16:48;;;;;;;7.35;4.47;;;;;;;14.50;37.26;98097.25;5010507;28;20183;-60
2023/03/14 11:19:50;;;;;;;6.47;4.35;;;;;;;14.83;37.14;98151.53;5010401;28;20570;-60
2023/03/14 11:22:39;;;;;;;5.32;4.80;;;;;;;14.87;37.10;98146.88;4951962;28;20691;-60
2023/03/14 11:25:07;;;;;;;6.50;4.63;;;;;;;14.95;37.22;98113.97;4911276;29;20218;-60
2023/03/14 11:27:43;;;;;;;5.25;4.75;;;;;;;15.15;36.80;98131.19;4913769;29;20210;-60
2023/03/14 11:30:27;;;;;;;12.73;8.35;;;;;;;15.33;37.02;98118.31;4913948;29;20202;-60
2023/03/14 11:33:07;;;;;;;30.95;14.48;;;;;;;15.08;36.39;98117.09;4913863;29;20186;-60
2023/03/14 11:36:01;;;;;;;21.98;10.95;;;;;;;14.96;37.06;98104.34;4913877;29;20709;-60
2023/03/14 11:38:37;;;;;;;17.50;8.35;;;;;;;14.50;37.27;98023.53;4913992;29;20195;-60
2023/03/14 11:41:08;;;;;;;5.40;4.90;;;;;;;14.54;37.36;98014.50;4913104;29;20205;-60